createdAt,value
2019-03-30T00:04:51.878Z,101966.97
2019-03-30T00:09:47.249Z,101971.41
2019-03-30T00:14:42.080Z,101967.10
2019-03-30T00:19:36.712Z,101964.18
2019-03-30T00:24:32.859Z,101959.39
2019-03-30T00:29:27.203Z,101950.19
2019-03-30T00:34:21.651Z,101953.64
2019-03-30T00:39:16.157Z,101942.27
2019-03-30T00:44:10.446Z,101942.02
2019-03-30T00:49:05.113Z,101941.30
2019-03-30T00:53:59.576Z,101937.74
2019-03-30T00:58:53.808Z,101935.64
2019-03-30T01:03:48.220Z,101926.67
2019-03-30T01:08:42.799Z,101924.45
2019-03-30T01:13:37.123Z,101919.46
2019-03-30T01:18:31.304Z,101922.30
2019-03-30T01:23:25.787Z,101914.64
2019-03-30T01:28:20.219Z,101920.52
2019-03-30T01:33:14.555Z,101913.41
2019-03-30T01:38:09.020Z,101906.97
2019-03-30T01:43:03.088Z,101915.39
2019-03-30T01:47:57.363Z,101911.93
2019-03-30T01:52:51.698Z,101910.22
2019-03-30T01:57:45.964Z,101901.52
2019-03-30T02:02:40.245Z,101896.05
2019-03-30T02:07:34.595Z,101894.37
2019-03-30T02:12:29.025Z,101894.30
2019-03-30T02:17:23.422Z,101885.42
2019-03-30T02:22:17.851Z,101883.33
2019-03-30T02:27:12.340Z,101877.06
2019-03-30T02:32:06.492Z,101875.72
2019-03-30T02:37:00.781Z,101877.40
2019-03-30T02:41:55.123Z,101871.13
2019-03-30T02:46:49.623Z,101876.98
2019-03-30T02:51:45.592Z,101877.05
2019-03-30T02:56:40.099Z,101871.56
2019-03-30T03:01:34.335Z,101864.19
2019-03-30T03:06:28.783Z,101860.58
2019-03-30T03:11:23.275Z,101862.12
2019-03-30T03:16:17.540Z,101851.97
2019-03-30T03:21:12.004Z,101849.55
2019-03-30T03:26:06.392Z,101849.18
2019-03-30T03:31:00.894Z,101846.60
2019-03-30T03:35:57.112Z,101853.38
2019-03-30T03:40:51.888Z,101843.97
2019-03-30T03:45:46.336Z,101840.31
2019-03-30T03:50:45.470Z,101836.77
2019-03-30T03:55:41.355Z,101834.73
2019-03-30T04:00:39.189Z,101835.67
2019-03-30T04:05:36.732Z,101833.59
2019-03-30T04:10:33.291Z,101830.70
2019-03-30T04:15:28.246Z,101820.41
2019-03-30T04:20:24.474Z,101826.25
2019-03-30T04:25:18.975Z,101825.05
2019-03-30T04:30:13.481Z,101817.34
2019-03-30T04:35:07.903Z,101812.34
2019-03-30T04:40:02.362Z,101812.93
2019-03-30T04:44:56.586Z,101806.64
2019-03-30T04:49:52.796Z,101806.34
2019-03-30T04:54:47.091Z,101797.58
2019-03-30T04:59:41.497Z,101801.84
2019-03-30T05:04:35.945Z,101802.48
2019-03-30T05:09:30.309Z,101793.96
2019-03-30T05:14:24.628Z,101797.24
2019-03-30T05:19:18.985Z,101784.94
2019-03-30T05:24:13.537Z,101785.52
2019-03-30T05:29:08.141Z,101776.75
2019-03-30T05:34:02.665Z,101777.20
2019-03-30T05:38:56.962Z,101788.41
2019-03-30T05:43:51.521Z,101789.30
2019-03-30T05:48:46.051Z,101788.55
2019-03-30T05:53:41.379Z,101788.95
2019-03-30T05:58:35.803Z,101784.63
2019-03-30T06:03:30.224Z,101789.19
2019-03-30T06:08:24.620Z,101783.95
2019-03-30T06:13:19.389Z,101784.86
2019-03-30T06:18:14.074Z,101781.08
2019-03-30T06:23:08.608Z,101767.36
2019-03-30T06:28:04.730Z,101781.44
2019-03-30T06:32:58.925Z,101779.98
2019-03-30T06:37:53.153Z,101777.89
2019-03-30T06:42:47.462Z,101776.31
2019-03-30T06:47:41.992Z,101778.06
2019-03-30T06:52:36.447Z,101766.68
2019-03-30T06:57:32.075Z,101764.22
2019-03-30T07:02:27.423Z,101762.52
2019-03-30T07:07:23.790Z,101762.64
2019-03-30T07:12:22.749Z,101761.00
2019-03-30T07:17:17.874Z,101761.95
2019-03-30T07:22:12.359Z,101759.66
2019-03-30T07:27:06.884Z,101770.36
2019-03-30T07:32:01.369Z,101766.43
2019-03-30T07:36:55.670Z,101746.71
2019-03-30T07:41:50.194Z,101739.24
2019-03-30T07:46:44.399Z,101749.60
2019-03-30T07:51:38.873Z,101745.64
2019-03-30T07:56:32.930Z,101734.18
2019-03-30T08:01:27.269Z,101731.22
2019-03-30T08:06:21.390Z,101737.19
2019-03-30T08:11:15.583Z,101732.84
2019-03-30T08:16:09.922Z,101728.61
2019-03-30T08:21:04.362Z,101726.13
2019-03-30T08:25:58.932Z,101720.84
2019-03-30T08:30:53.541Z,101721.23
2019-03-30T08:35:47.909Z,101719.59
2019-03-30T08:40:42.270Z,101710.59
2019-03-30T08:45:36.785Z,101711.55
2019-03-30T08:50:31.209Z,101693.73
2019-03-30T08:55:25.703Z,101687.11
2019-03-30T09:00:37.095Z,101685.52
2019-03-30T09:05:31.693Z,101692.09
2019-03-30T09:10:25.971Z,101683.46
2019-03-30T09:15:20.599Z,101668.30
2019-03-30T09:20:14.868Z,101663.28
2019-03-30T09:25:09.587Z,101661.97
2019-03-30T09:30:04.810Z,101661.86
2019-03-30T09:34:59.218Z,101654.63
2019-03-30T09:39:53.823Z,101655.36
2019-03-30T09:44:48.226Z,101651.38
2019-03-30T09:49:42.781Z,101653.23
2019-03-30T09:54:37.374Z,101646.94
2019-03-30T09:59:31.939Z,101651.30
2019-03-30T10:04:28.052Z,101638.03
2019-03-30T10:09:23.617Z,101643.08
2019-03-30T10:14:19.095Z,101640.13
2019-03-30T10:19:14.086Z,101637.98
2019-03-30T10:24:09.667Z,101645.25
2019-03-30T10:29:03.779Z,101634.08
2019-03-30T10:33:57.900Z,101632.97
2019-03-30T10:38:52.071Z,101627.00
2019-03-30T10:43:46.622Z,101634.73
2019-03-30T10:48:41.597Z,101628.02
2019-03-30T10:53:35.973Z,101627.22
2019-03-30T10:58:30.298Z,101626.31
2019-03-30T11:03:24.892Z,101620.77
2019-03-30T11:08:19.494Z,101620.49
2019-03-30T11:13:13.900Z,101613.42
2019-03-30T11:18:08.697Z,101610.61
2019-03-30T11:23:03.213Z,101605.95
2019-03-30T11:27:57.405Z,101606.72
2019-03-30T11:32:51.812Z,101602.66
2019-03-30T11:37:46.312Z,101596.44
2019-03-30T11:42:40.503Z,101590.20
2019-03-30T11:47:34.661Z,101582.65
2019-03-30T11:52:28.904Z,101566.58
2019-03-30T11:57:22.971Z,101564.92
2019-03-30T12:02:27.386Z,101562.30
2019-03-30T12:07:12.981Z,101566.44
2019-03-30T12:12:07.530Z,101568.23
2019-03-30T12:17:01.733Z,101561.92
2019-03-30T12:21:56.090Z,101558.59
2019-03-30T12:26:50.510Z,101543.14
2019-03-30T12:31:45.243Z,101550.76
2019-03-30T12:36:39.495Z,101542.18
2019-03-30T12:41:33.929Z,101538.41
2019-03-30T12:46:27.993Z,101529.17
2019-03-30T12:51:22.775Z,101522.08
2019-03-30T12:56:17.222Z,101517.31
2019-03-30T13:01:11.376Z,101513.53
2019-03-30T13:06:05.588Z,101513.65
2019-03-30T13:10:59.735Z,101512.39
2019-03-30T13:15:54.237Z,101499.92
2019-03-30T13:20:48.327Z,101498.48
2019-03-30T13:25:42.548Z,101500.98
2019-03-30T13:30:36.671Z,101483.66
2019-03-30T13:35:30.683Z,101488.30
2019-03-30T13:40:24.898Z,101480.89
2019-03-30T13:45:19.009Z,101468.06
2019-03-30T13:50:13.232Z,101472.14
2019-03-30T13:55:08.680Z,101473.80
2019-03-30T14:00:03.256Z,101467.73
2019-03-30T14:04:57.304Z,101457.05
2019-03-30T14:09:51.422Z,101458.22
2019-03-30T14:14:45.506Z,101458.19
2019-03-30T14:19:39.684Z,101442.98
2019-03-30T14:24:33.844Z,101444.27
2019-03-30T14:29:28.101Z,101434.69
2019-03-30T14:34:22.388Z,101439.82
2019-03-30T14:39:16.504Z,101441.44
2019-03-30T14:44:10.700Z,101436.78
2019-03-30T14:49:04.948Z,101431.58
2019-03-30T14:53:59.075Z,101425.62
2019-03-30T14:58:53.284Z,101432.92
2019-03-30T15:03:47.322Z,101436.42
2019-03-30T15:08:41.873Z,101440.05
2019-03-30T15:13:36.058Z,101440.55
2019-03-30T15:18:30.127Z,101441.33
2019-03-30T15:23:26.873Z,101440.67
2019-03-30T15:28:20.402Z,101439.28
2019-03-30T15:33:14.491Z,101438.16
2019-03-30T15:38:08.790Z,101429.24
2019-03-30T15:43:02.836Z,101437.60
2019-03-30T15:47:57.114Z,101433.81
2019-03-30T15:52:51.675Z,101430.14
2019-03-30T15:57:45.714Z,101421.44
2019-03-30T16:02:39.882Z,101429.47
2019-03-30T16:07:35.399Z,101430.25
2019-03-30T16:12:34.977Z,101436.00
2019-03-30T16:17:29.206Z,101437.37
2019-03-30T16:22:23.336Z,101437.33
2019-03-30T16:27:28.321Z,101435.30
2019-03-30T16:32:13.265Z,101425.49
2019-03-30T16:37:07.431Z,101428.45
2019-03-30T16:42:01.857Z,101433.44
2019-03-30T16:46:57.599Z,101433.91
2019-03-30T16:51:52.094Z,101430.06
2019-03-30T16:56:46.590Z,101436.30
2019-03-30T17:01:41.193Z,101438.92
2019-03-30T17:06:38.673Z,101439.52
2019-03-30T17:11:33.196Z,101433.64
2019-03-30T17:16:29.491Z,101438.92
2019-03-30T17:21:24.653Z,101435.26
2019-03-30T17:26:19.115Z,101434.77
2019-03-30T17:31:13.662Z,101436.92
2019-03-30T17:36:08.072Z,101437.13
2019-03-30T17:41:02.854Z,101439.22
2019-03-30T17:45:57.469Z,101441.61
2019-03-30T17:50:51.516Z,101447.56
2019-03-30T17:55:46.025Z,101450.63
2019-03-30T18:00:40.469Z,101453.56
2019-03-30T18:05:34.963Z,101450.94
2019-03-30T18:10:29.073Z,101454.70
2019-03-30T18:15:23.142Z,101458.80
2019-03-30T18:20:17.652Z,101461.21
2019-03-30T18:25:12.479Z,101463.84
2019-03-30T18:30:07.704Z,101466.51
2019-03-30T18:35:04.510Z,101470.31
2019-03-30T18:39:58.944Z,101474.09
2019-03-30T18:44:56.770Z,101475.44
2019-03-30T18:49:50.882Z,101481.42
2019-03-30T18:54:48.074Z,101488.13
2019-03-30T18:59:42.689Z,101494.98
2019-03-30T19:04:37.112Z,101492.80
2019-03-30T19:09:33.490Z,101491.50
2019-03-30T19:14:27.604Z,101498.61
2019-03-30T19:19:21.772Z,101499.66
2019-03-30T19:24:16.341Z,101499.96
2019-03-30T19:29:10.881Z,101500.55
2019-03-30T19:34:05.192Z,101499.35
2019-03-30T19:38:59.897Z,101500.73
2019-03-30T19:43:54.355Z,101497.45
2019-03-30T19:48:48.859Z,101503.30
2019-03-30T19:53:43.231Z,101501.48
2019-03-30T19:58:37.640Z,101505.84
2019-03-30T20:03:31.933Z,101508.11
2019-03-30T20:08:26.244Z,101513.98
2019-03-30T20:13:21.860Z,101505.50
2019-03-30T20:18:16.473Z,101508.37
2019-03-30T20:23:10.989Z,101509.78
2019-03-30T20:28:05.439Z,101508.44
2019-03-30T20:33:00.413Z,101519.30
2019-03-30T20:37:54.488Z,101523.22
2019-03-30T20:42:48.655Z,101526.42
2019-03-30T20:47:42.588Z,101523.52
2019-03-30T20:52:36.787Z,101527.23
2019-03-30T20:57:30.856Z,101525.78
2019-03-30T21:02:24.991Z,101524.55
2019-03-30T21:07:19.201Z,101523.32
2019-03-30T21:12:13.591Z,101525.98
2019-03-30T21:17:07.881Z,101529.94
2019-03-30T21:22:02.484Z,101525.27
2019-03-30T21:26:56.797Z,101519.88
2019-03-30T21:31:51.127Z,101523.40
2019-03-30T21:36:45.663Z,101519.78
2019-03-30T21:41:40.309Z,101509.79
2019-03-30T21:46:34.796Z,101510.39
2019-03-30T21:51:28.944Z,101517.41
2019-03-30T21:56:23.081Z,101521.91
2019-03-30T22:01:17.698Z,101524.14
2019-03-30T22:06:12.075Z,101519.48
2019-03-30T22:11:06.668Z,101522.06
2019-03-30T22:16:02.831Z,101523.91
2019-03-30T22:20:58.245Z,101529.24
2019-03-30T22:25:52.659Z,101532.67
2019-03-30T22:30:47.357Z,101527.66
2019-03-30T22:35:41.770Z,101538.21
2019-03-30T22:40:41.148Z,101538.34
2019-03-30T22:45:33.581Z,101533.61
2019-03-30T22:50:28.071Z,101535.06
2019-03-30T22:55:23.292Z,101544.67
2019-03-30T23:00:38.955Z,101536.62
2019-03-30T23:05:33.936Z,101536.22
2019-03-30T23:10:28.251Z,101536.75
2019-03-30T23:15:22.631Z,101529.98
2019-03-30T23:20:17.391Z,101524.90
2019-03-30T23:25:11.336Z,101529.64
2019-03-30T23:30:06.251Z,101535.91
2019-03-30T23:35:03.876Z,101532.72
2019-03-30T23:39:58.267Z,101533.16
2019-03-30T23:44:52.629Z,101528.56
2019-03-30T23:49:47.176Z,101527.49
2019-03-30T23:54:43.332Z,101527.80
2019-03-30T23:59:37.862Z,101526.98
